CheckWX is a tool to help pilots better visualize weather data.  It is not intended as a substitute for an official pre-flight weather briefing.

04:54:47 UTC

KCKB TAF
North Central West Virginia Airport
Clarksburg, West Virginia, USA
KCKB 280441Z 2805/2824 23008KT 6SM BR OVC035 TEMPO 2805/2806 3SM -SN OVC020 FM280600 23007KT 1SM -SN BKN008 OVC030 FM281300 22006KT P6SM BKN027 FM281700 26013G22KT P6SM BKN035

Feb-28@
05:00 UTC

Feb-28 @ 05:00 UTC

Feb-28@
06:00 UTC

Feb-28 @ 06:00 UTC

KCKB 280441Z 2805/2824 23008KT 6SM BR OVC035
Wind
  • 230° at 8 KTS
Conditions
Mist
Cloud Levels
  • Overcast at 3,500' AGL

Feb-28@
05:00 UTC

Feb-28 @ 05:00 UTC

Feb-28@
06:00 UTC

Feb-28 @ 06:00 UTC

TEMPO 2805/2806 3SM -SN OVC020

Temporary

Temporary Changes expected for less than half the time period

Conditions
Light Snow
Cloud Levels
  • Overcast at 2,000' AGL

Feb-28@
06:00 UTC

Feb-28 @ 06:00 UTC

Feb-28@
13:00 UTC

Feb-28 @ 13:00 UTC

FM280600 23007KT 1SM -SN BKN008 OVC030

From

From Standard forecast or significant change

Wind
  • 230° at 7 KTS
Conditions
Light Snow
Cloud Levels
  • Broken at 800' AGL
  • Overcast at 3,000' AGL

Feb-28@
13:00 UTC

Feb-28 @ 13:00 UTC

Feb-28@
17:00 UTC

Feb-28 @ 17:00 UTC

FM281300 22006KT P6SM BKN027

From

From Standard forecast or significant change

Wind
  • 220° at 6 KTS
Cloud Levels
  • Broken at 2,700' AGL

Feb-28@
17:00 UTC

Feb-28 @ 17:00 UTC

Feb-29@
00:00 UTC

Feb-29 @ 00:00 UTC

FM281700 26013G22KT P6SM BKN035

From

From Standard forecast or significant change

Wind
  • 260° at 13 KTS
  • {Gusting to 22 KTS
Cloud Levels
  • Broken at 3,500' AGL